• Join FlightAware (Why Join?)
  • Login
  • US Flag 
02:48PM EDT


 

Airport Tracker/Info


-or-


 

Live Flight TrackerFlight Track Log ✈ LNI33 ✈ 20-Mar-2014 ✈ WADD / DPS - WIII / CGK

Flight Track Log - Related Links

Times and Time Zones

All times are in EDT time to prevent confusion due to time zone crossing. See the LNI33 flight status page for this flight to view local times or setup timezone preferences in your user account.

Time Position Orientation Groundspeed Altitude Reporting Facility
EDT Latitude Longitude Course Direction KTS MPH feet Rate Location/Type
07:28AM -7.7899 113.1637 296° West 467 537 33,100  Level FlightAware ADS-B (RPLS / SGL)
07:29AM -7.7479 113.0770 296° West 467 537 34,100 1,080 Climbing FlightAware ADS-B (RPLS / SGL)
07:30AM -7.6735 112.9224 296° West 461 531 35,300 1,020 Climbing FlightAware ADS-B (RPLS / SGL)
07:31AM -7.6445 112.8623 296° West 459 528 35,800 600 Climbing FlightAware ADS-B
07:32AM -7.6105 112.7922 296° West 458 527 36,000 120 Climbing FlightAware ADS-B
07:32AM -7.5815 112.7333 297° West 458 527 36,000  Level FlightAware ADS-B
07:33AM -7.5442 112.6587 297° West 457 526 36,000  Level FlightAware ADS-B
07:33AM -7.5126 112.5946 296° West 457 526 36,000  Level FlightAware ADS-B
07:34AM -7.4797 112.5265 296° West 457 526 36,000  Level FlightAware ADS-B
07:35AM -7.4485 112.4610 295° West 456 525 36,000  Level FlightAware ADS-B
07:35AM -7.4214 112.4033 295° West 458 527 36,000  Level FlightAware ADS-B
07:37AM -7.5311 112.6325 305° West 461 531 36,000  Level FlightAware ADS-B (RPLS / SGL)
07:39AM -7.4032 112.0733 283° West  Level Estimated
07:40AM -7.3390 111.7938 283° West  Level Estimated
07:41AM -7.2745 111.5144 283° West  Level Estimated
07:42AM -7.2100 111.2351 283° West  Level Estimated
07:43AM -7.1452 110.9559 283° West  Level Estimated
07:44AM -7.0803 110.6768 283° West  Level Estimated
07:45AM -7.0152 110.3977 283° West  Level Estimated
07:46AM -6.9500 110.1187 283° West  Level Estimated
07:47AM -6.8846 109.8398 283° West  Level Estimated
07:48AM -6.8190 109.5610 283° West  Level Estimated
07:49AM -6.7533 109.2822 283° West  Level Estimated
07:50AM -6.6874 109.0036 283° West  Level Estimated
07:51AM -6.6213 108.7250 283° West  Level Estimated
07:52AM -6.5552 108.4464 283° West  Level Estimated
07:53AM -6.4888 108.1680 283° West  Level Estimated
07:54AM -6.4223 107.8896 284° West  Level Estimated
07:55AM -6.3556 107.6113 284° West  Level Estimated
07:56AM -6.2888 107.3331 284° West  Level Estimated
07:57AM -6.2219 107.0549 284° West  Level Estimated
07:58AM -6.1548 106.7768 284° West  Level Estimated
07:59AM -6.1256 106.6559 284° West  Level Estimated
08:00AM -6.1256 106.6559 North  Level Estimated
08:01AM -6.1256 106.6559 North  Level Estimated
08:02AM -6.1256 106.6559 North  Level Estimated
08:03AM -6.1256 106.6559 North  Level Estimated
08:04AM -6.1256 106.6559 North  Level Estimated
08:05AM -6.1256 106.6559 North  Level Estimated
08:06AM -6.1256 106.6559 North  Level Estimated
08:07AM -6.1256 106.6559 North  Level Estimated
08:08AM -6.1256 106.6559 North  Level Estimated
08:09AM -6.1256 106.6559 North  Level Estimated
08:10AM -6.1256 106.6559 North  Level Estimated
08:11AM -6.1256 106.6559 North  Level Estimated
08:12AM -6.1256 106.6559 North  Level Estimated
08:13AM -6.1256 106.6559 North  Level Estimated
08:14AM -6.1256 106.6559 North  Level Estimated
08:15AM -6.1256 106.6559 North  Level Estimated
08:16AM -6.1256 106.6559 North  Level Estimated